Time;durP1;ratioP1;P1;durP2;ratioP2;P2;SDS_P1;SDS_P2;PMS_P1;PMS_P2;Temp;Humidity;BMP_temperature;BMP_pressure;BME280_temperature;BME280_humidity;BME280_pressure;Samples;Min_cycle;Max_cycle;Signal;HPM_P1;HPM_P2
2021/07/26 00:01:12;;;;;;;11.33;6.37;;;19.40;93.20;;;;;;4990673;28;20189;-74
2021/07/26 00:03:38;;;;;;;10.83;5.70;;;19.40;93.40;;;;;;4985579;28;20178;-74
2021/07/26 00:06:04;;;;;;;8.90;5.57;;;19.40;93.60;;;;;;4992023;28;20476;-73
2021/07/26 00:08:30;;;;;;;9.70;6.40;;;19.40;93.80;;;;;;4992946;28;20201;-74
2021/07/26 00:11:01;;;;;;;12.47;5.50;;;19.40;93.80;;;;;;4986799;28;20475;-74
2021/07/26 00:13:27;;;;;;;8.13;6.33;;;19.40;93.80;;;;;;4988624;28;20185;-75
2021/07/26 00:15:53;;;;;;;9.63;5.90;;;19.40;93.80;;;;;;4993878;28;20439;-74
2021/07/26 00:18:19;;;;;;;11.20;6.30;;;19.40;93.80;;;;;;4993907;28;20424;-75
2021/07/26 00:20:44;;;;;;;10.60;5.97;;;19.40;93.80;;;;;;4993259;28;20745;-75
2021/07/26 00:23:10;;;;;;;10.23;6.20;;;19.40;93.80;;;;;;4991313;28;20528;-74
2021/07/26 00:25:36;;;;;;;14.30;6.33;;;19.40;93.80;;;;;;4990816;28;20191;-75
2021/07/26 00:28:02;;;;;;;10.37;5.43;;;19.30;94.00;;;;;;4988837;28;20222;-74
2021/07/26 00:30:28;;;;;;;8.47;5.57;;;19.30;94.00;;;;;;4992217;28;20207;-75
2021/07/26 00:32:54;;;;;;;10.97;6.47;;;19.30;94.00;;;;;;4990671;28;20469;-74
2021/07/26 00:35:19;;;;;;;8.50;5.77;;;19.30;93.90;;;;;;4986553;28;20186;-75
2021/07/26 00:37:45;;;;;;;9.80;6.60;;;19.20;93.80;;;;;;4991521;28;21691;-75
2021/07/26 00:40:11;;;;;;;11.10;6.40;;;19.30;93.60;;;;;;4990634;28;20188;-75
2021/07/26 00:42:37;;;;;;;10.87;6.17;;;19.20;93.60;;;;;;4983443;28;20188;-75
2021/07/26 00:45:04;;;;;;;11.70;7.07;;;19.20;93.70;;;;;;4988208;28;20863;-75
2021/07/26 00:47:30;;;;;;;11.33;5.67;;;19.20;93.70;;;;;;4990176;28;20222;-74
2021/07/26 00:49:56;;;;;;;12.70;6.80;;;19.10;93.90;;;;;;4982757;28;20525;-74
2021/07/26 00:52:23;;;;;;;10.93;5.93;;;19.10;94.20;;;;;;4985166;28;20246;-74
2021/07/26 00:54:49;;;;;;;11.37;6.70;;;19.10;94.40;;;;;;4989240;28;20419;-74
2021/07/26 00:57:15;;;;;;;11.47;6.70;;;19.10;94.40;;;;;;4982823;28;20582;-74
2021/07/26 00:59:41;;;;;;;13.53;6.67;;;19.10;94.60;;;;;;4988340;28;20710;-74
2021/07/26 01:02:07;;;;;;;12.90;5.97;;;19.10;94.50;;;;;;4990024;28;20430;-74
2021/07/26 01:04:33;;;;;;;13.27;7.00;;;19.10;94.60;;;;;;4987930;28;20186;-74
2021/07/26 01:06:59;;;;;;;8.80;5.90;;;19.10;94.70;;;;;;4989797;28;20219;-74
2021/07/26 01:09:25;;;;;;;10.47;5.83;;;19.10;94.60;;;;;;4985818;28;20897;-75
2021/07/26 01:11:51;;;;;;;10.47;6.27;;;19.10;94.60;;;;;;4990939;28;20577;-74
2021/07/26 01:14:17;;;;;;;11.00;6.33;;;19.10;94.60;;;;;;4989839;28;20430;-74
2021/07/26 01:16:46;;;;;;;11.80;5.40;;;19.20;94.60;;;;;;4986357;28;20543;-74
2021/07/26 01:19:12;;;;;;;10.57;6.50;;;19.10;94.50;;;;;;4982362;28;20195;-74
2021/07/26 01:21:38;;;;;;;13.87;6.77;;;19.10;94.60;;;;;;4984943;28;20434;-75
2021/07/26 01:24:05;;;;;;;10.17;6.40;;;19.00;94.70;;;;;;4987200;28;20444;-73
2021/07/26 01:26:32;;;;;;;11.97;6.43;;;19.00;94.90;;;;;;4990601;28;20238;-74
2021/07/26 01:29:00;;;;;;;10.63;6.33;;;19.00;94.90;;;;;;4986469;28;20427;-73
2021/07/26 01:31:26;;;;;;;12.87;6.40;;;19.10;94.80;;;;;;4988915;28;20477;-74
2021/07/26 01:33:53;;;;;;;9.23;6.37;;;19.10;94.70;;;;;;4988801;28;20636;-74
2021/07/26 01:36:20;;;;;;;11.00;6.27;;;19.10;94.50;;;;;;4990264;28;21477;-74
2021/07/26 01:38:46;;;;;;;11.97;6.40;;;19.10;94.50;;;;;;4990039;28;20445;-74
2021/07/26 01:41:20;;;;;;;16.47;6.60;;;19.20;94.40;;;;;;4982644;28;20421;-74
2021/07/26 01:46:36;;;;;;;9.47;6.10;;;19.20;94.30;;;;;;4990654;28;20462;-74
2021/07/26 01:49:07;;;;;;;10.60;5.93;;;19.20;94.30;;;;;;4978310;28;20438;-74
2021/07/26 01:51:42;;;;;;;10.57;6.23;;;19.10;94.20;;;;;;4982005;28;20529;-75
2021/07/26 01:54:08;;;;;;;10.93;6.37;;;19.10;93.60;;;;;;4986923;28;20783;-75
2021/07/26 01:56:34;;;;;;;12.00;7.00;;;19.00;93.70;;;;;;4988044;28;20488;-74
2021/07/26 01:59:01;;;;;;;11.17;6.73;;;19.00;93.70;;;;;;4989624;28;20426;-74
2021/07/26 02:01:26;;;;;;;15.40;7.67;;;19.00;93.80;;;;;;4987060;28;20529;-74
2021/07/26 02:03:52;;;;;;;11.77;6.23;;;18.90;94.00;;;;;;4985845;28;20963;-73
2021/07/26 02:06:18;;;;;;;11.50;6.80;;;18.90;94.00;;;;;;4984679;28;20215;-73
2021/07/26 02:08:44;;;;;;;12.47;6.60;;;18.80;94.00;;;;;;4990276;28;20188;-74
2021/07/26 02:11:09;;;;;;;13.50;7.10;;;18.80;94.30;;;;;;4990039;28;20217;-73
2021/07/26 02:13:36;;;;;;;11.13;6.40;;;18.70;94.40;;;;;;4989166;28;20236;-74
2021/07/26 02:16:02;;;;;;;10.77;7.13;;;18.70;94.50;;;;;;4989819;28;20287;-73
2021/07/26 02:18:28;;;;;;;8.83;6.90;;;18.80;94.60;;;;;;4984416;28;20433;-73
2021/07/26 02:20:53;;;;;;;8.93;5.80;;;18.80;94.70;;;;;;4987492;28;20428;-74
2021/07/26 02:23:19;;;;;;;9.67;6.23;;;18.80;94.50;;;;;;4989280;28;20234;-75
2021/07/26 02:25:45;;;;;;;10.80;6.57;;;18.80;94.50;;;;;;4985533;28;20186;-75
2021/07/26 02:28:10;;;;;;;10.70;6.90;;;18.80;94.20;;;;;;4988197;28;21060;-75
2021/07/26 02:30:37;;;;;;;10.80;7.10;;;18.80;94.10;;;;;;4985869;28;20266;-75
2021/07/26 02:33:02;;;;;;;10.13;6.37;;;18.70;94.20;;;;;;4987550;28;20198;-75
2021/07/26 02:35:28;;;;;;;10.60;6.23;;;18.70;94.30;;;;;;4987498;28;20537;-75
2021/07/26 02:37:56;;;;;;;11.70;6.47;;;18.70;94.40;;;;;;4985310;28;20583;-75
2021/07/26 02:40:21;;;;;;;12.10;6.27;;;18.60;94.30;;;;;;4990765;28;20218;-75
2021/07/26 02:42:47;;;;;;;12.27;6.50;;;18.70;94.50;;;;;;4993587;28;20453;-73
2021/07/26 02:45:13;;;;;;;10.97;6.40;;;18.70;94.20;;;;;;4992751;28;20559;-75
2021/07/26 02:47:39;;;;;;;8.60;6.23;;;18.70;94.40;;;;;;4992123;28;20212;-74
2021/07/26 02:50:05;;;;;;;18.83;5.90;;;18.70;94.60;;;;;;4983376;28;20452;-74
2021/07/26 02:52:31;;;;;;;10.53;6.47;;;18.80;94.60;;;;;;4988783;28;20192;-74
2021/07/26 02:54:56;;;;;;;12.30;6.83;;;18.80;94.60;;;;;;4991660;28;20548;-74
2021/07/26 02:57:22;;;;;;;12.60;6.47;;;18.80;94.60;;;;;;4986721;28;20236;-74
2021/07/26 02:59:48;;;;;;;10.63;6.50;;;18.90;94.50;;;;;;4993450;28;20180;-74
2021/07/26 03:02:14;;;;;;;12.07;6.60;;;18.90;94.50;;;;;;4993405;28;20186;-74
2021/07/26 03:04:40;;;;;;;11.60;6.40;;;19.00;94.40;;;;;;4989978;28;20433;-74
2021/07/26 03:07:05;;;;;;;11.50;6.20;;;19.00;94.20;;;;;;4993606;28;20218;-73
2021/07/26 03:09:31;;;;;;;10.17;6.70;;;19.00;94.10;;;;;;4984570;28;20187;-74
2021/07/26 03:11:57;;;;;;;11.80;5.60;;;19.10;93.70;;;;;;4988053;28;20635;-74
2021/07/26 03:14:23;;;;;;;11.70;6.20;;;19.00;93.60;;;;;;4985427;28;20192;-74
2021/07/26 03:16:48;;;;;;;8.13;5.90;;;19.00;93.80;;;;;;4989647;28;20575;-74
2021/07/26 03:19:14;;;;;;;9.77;6.20;;;19.00;93.80;;;;;;4984698;28;20208;-73
2021/07/26 03:21:40;;;;;;;10.37;6.30;;;19.10;93.70;;;;;;4993511;28;20279;-74
2021/07/26 03:24:06;;;;;;;9.10;6.27;;;19.10;93.60;;;;;;4985339;28;20232;-74
2021/07/26 03:26:31;;;;;;;12.37;6.50;;;19.10;93.50;;;;;;4987750;28;20198;-73
2021/07/26 03:28:57;;;;;;;8.07;5.57;;;19.10;93.50;;;;;;4993010;28;20426;-73
2021/07/26 03:31:23;;;;;;;14.30;6.90;;;19.20;93.50;;;;;;4992074;28;20215;-73
2021/07/26 03:33:49;;;;;;;10.80;6.20;;;19.20;93.50;;;;;;4988624;28;20496;-74
2021/07/26 03:36:14;;;;;;;10.63;5.80;;;19.20;93.30;;;;;;4982759;28;20695;-74
2021/07/26 03:38:41;;;;;;;9.50;6.17;;;19.20;93.20;;;;;;4990084;28;20195;-73
2021/07/26 03:41:07;;;;;;;11.57;6.63;;;19.30;93.20;;;;;;4981797;28;20268;-74
2021/07/26 03:43:33;;;;;;;9.13;6.40;;;19.30;93.20;;;;;;4992371;28;20518;-74
2021/07/26 03:45:58;;;;;;;11.27;7.00;;;19.30;93.10;;;;;;4990710;28;20541;-73
2021/07/26 03:48:24;;;;;;;12.03;6.63;;;19.30;93.00;;;;;;4984262;28;20194;-74
2021/07/26 03:50:50;;;;;;;8.57;5.83;;;19.30;93.00;;;;;;4987419;28;20214;-75
2021/07/26 03:53:18;;;;;;;10.23;7.00;;;19.30;93.10;;;;;;4984939;28;20209;-74
2021/07/26 03:55:44;;;;;;;10.27;6.00;;;19.30;93.00;;;;;;4988602;28;20195;-75
2021/07/26 03:58:10;;;;;;;13.03;6.10;;;19.30;93.00;;;;;;4984084;28;20467;-74
2021/07/26 04:00:35;;;;;;;12.53;6.93;;;19.30;93.00;;;;;;4987944;28;20571;-75
2021/07/26 04:05:38;;;;;;;11.07;6.53;;;19.30;92.80;;;;;;4979039;28;20191;-74
2021/07/26 04:08:12;;;;;;;8.70;5.97;;;19.30;92.90;;;;;;4986946;28;20479;-75
2021/07/26 04:10:42;;;;;;;12.30;6.60;;;19.20;92.90;;;;;;4985208;28;20512;-76
2021/07/26 04:13:07;;;;;;;13.20;6.23;;;19.30;92.60;;;;;;4984940;28;20485;-74
2021/07/26 04:15:33;;;;;;;9.77;5.77;;;19.20;92.60;;;;;;4989514;28;20935;-74
2021/07/26 04:17:59;;;;;;;10.90;6.60;;;19.20;92.60;;;;;;4981591;28;20741;-74
2021/07/26 04:20:25;;;;;;;9.63;6.57;;;19.20;92.70;;;;;;4991535;28;20620;-74
2021/07/26 04:22:50;;;;;;;8.53;5.93;;;19.20;92.90;;;;;;4985949;28;20282;-74
2021/07/26 04:25:17;;;;;;;11.57;6.60;;;19.30;92.80;;;;;;4991194;28;20519;-75
2021/07/26 04:27:43;;;;;;;13.33;7.13;;;19.30;92.90;;;;;;4991764;28;20202;-74
2021/07/26 04:30:09;;;;;;;9.83;6.67;;;19.40;92.60;;;;;;4991691;28;20433;-74
2021/07/26 04:32:45;;;;;;;10.60;6.30;;;19.40;92.70;;;;;;4982781;28;20218;-75
2021/07/26 04:35:12;;;;;;;11.57;6.17;;;19.40;92.70;;;;;;4990417;28;20420;-75
2021/07/26 04:37:38;;;;;;;8.63;5.23;;;19.40;92.50;;;;;;4984759;28;20841;-74
2021/07/26 04:40:05;;;;;;;9.30;5.87;;;19.40;92.30;;;;;;4990518;28;20421;-74
2021/07/26 04:42:31;;;;;;;10.03;5.90;;;19.40;92.10;;;;;;4979970;28;20903;-74
2021/07/26 04:44:57;;;;;;;10.40;6.27;;;19.40;91.70;;;;;;4990242;28;20426;-74
2021/07/26 04:47:23;;;;;;;10.40;6.20;;;19.50;91.60;;;;;;4987169;28;21925;-74
2021/07/26 04:49:48;;;;;;;9.53;5.63;;;19.40;91.60;;;;;;4984261;28;20186;-75
2021/07/26 04:52:14;;;;;;;10.50;5.93;;;19.50;91.50;;;;;;4983696;28;20271;-75
2021/07/26 04:54:40;;;;;;;10.00;6.10;;;19.40;91.40;;;;;;4990991;28;20208;-74
2021/07/26 04:57:05;;;;;;;11.40;6.23;;;19.40;91.70;;;;;;4988182;28;20253;-75
2021/07/26 04:59:31;;;;;;;11.67;6.30;;;19.40;91.80;;;;;;4988714;28;20202;-75
2021/07/26 05:01:57;;;;;;;9.67;6.17;;;19.50;91.80;;;;;;4984719;28;20563;-75
2021/07/26 05:04:22;;;;;;;8.80;5.90;;;19.50;91.70;;;;;;4987137;28;20208;-74
2021/07/26 05:06:48;;;;;;;9.87;6.23;;;19.40;91.70;;;;;;4985659;28;20239;-75
2021/07/26 05:09:14;;;;;;;11.60;7.57;;;19.40;91.50;;;;;;4987795;28;20190;-74
2021/07/26 05:11:43;;;;;;;17.57;6.67;;;19.50;91.20;;;;;;4984126;28;20731;-75
2021/07/26 05:14:10;;;;;;;10.63;6.27;;;19.40;91.10;;;;;;4982489;28;20191;-75
2021/07/26 05:16:36;;;;;;;12.37;6.80;;;19.40;91.40;;;;;;4989112;28;20865;-75
2021/07/26 05:19:01;;;;;;;10.80;6.67;;;19.30;91.60;;;;;;4984506;28;20517;-74
2021/07/26 05:21:28;;;;;;;12.77;6.57;;;19.10;92.10;;;;;;4987697;28;20212;-75
2021/07/26 05:23:53;;;;;;;11.07;7.27;;;19.00;92.50;;;;;;4983908;28;20300;-75
2021/07/26 05:26:19;;;;;;;11.30;7.30;;;18.90;92.80;;;;;;4985666;28;20997;-75
2021/07/26 05:28:45;;;;;;;14.87;7.60;;;19.00;92.80;;;;;;4991116;28;20194;-74
2021/07/26 05:31:10;;;;;;;12.23;6.63;;;19.00;92.80;;;;;;4985444;28;20223;-75
2021/07/26 05:33:36;;;;;;;9.50;6.40;;;19.00;92.60;;;;;;4988893;28;20185;-74
2021/07/26 05:36:02;;;;;;;11.07;5.77;;;19.00;92.80;;;;;;4987396;28;20189;-75
2021/07/26 05:38:28;;;;;;;11.10;6.57;;;19.00;93.00;;;;;;4990358;28;20179;-74
2021/07/26 05:40:54;;;;;;;9.43;6.03;;;19.10;92.80;;;;;;4980023;28;20601;-75
2021/07/26 05:43:20;;;;;;;12.47;6.90;;;19.20;92.50;;;;;;4987135;28;20190;-75
2021/07/26 05:45:45;;;;;;;13.43;6.73;;;19.30;92.30;;;;;;4990794;28;20991;-76
2021/07/26 05:48:11;;;;;;;15.40;6.90;;;19.50;91.90;;;;;;4986691;28;20213;-74
2021/07/26 05:50:37;;;;;;;8.57;5.67;;;19.50;90.70;;;;;;4980574;28;20596;-75
2021/07/26 05:53:06;;;;;;;13.33;6.40;;;19.50;90.90;;;;;;4985228;28;20667;-75
2021/07/26 05:55:32;;;;;;;10.83;6.40;;;19.40;91.30;;;;;;4978950;28;20197;-75
2021/07/26 05:58:00;;;;;;;13.17;7.43;;;19.50;91.40;;;;;;4985167;28;20523;-75
2021/07/26 06:00:35;;;;;;;9.83;5.97;;;19.50;90.90;;;;;;4986231;28;21230;-75
2021/07/26 06:03:03;;;;;;;9.03;6.03;;;19.60;90.70;;;;;;4993194;28;20455;-74
2021/07/26 06:05:29;;;;;;;10.57;5.77;;;19.60;90.30;;;;;;4983663;28;20437;-73
2021/07/26 06:07:55;;;;;;;10.20;5.70;;;19.70;90.00;;;;;;4985948;28;20445;-74
2021/07/26 06:10:20;;;;;;;11.30;5.60;;;19.70;89.90;;;;;;4989007;28;20218;-74
2021/07/26 06:12:46;;;;;;;7.17;5.07;;;19.70;88.70;;;;;;4984979;28;20187;-74
2021/07/26 06:15:12;;;;;;;12.83;6.00;;;19.80;88.90;;;;;;4986175;28;20186;-76
2021/07/26 06:17:38;;;;;;;11.00;5.40;;;19.90;88.70;;;;;;4985868;28;20203;-75
2021/07/26 06:20:06;;;;;;;12.10;6.23;;;20.00;87.70;;;;;;4988142;28;20549;-77
2021/07/26 06:22:32;;;;;;;9.63;5.80;;;20.10;87.00;;;;;;4989330;28;20191;-77
2021/07/26 06:24:58;;;;;;;9.10;5.60;;;20.20;87.00;;;;;;4994374;28;20981;-76
2021/07/26 06:27:23;;;;;;;10.23;5.50;;;20.20;87.30;;;;;;4988836;28;20449;-76
2021/07/26 06:29:52;;;;;;;9.27;5.00;;;20.30;87.10;;;;;;4990819;28;20201;-75
2021/07/26 06:32:18;;;;;;;12.90;5.93;;;20.30;87.00;;;;;;4988456;28;20237;-77
2021/07/26 06:34:44;;;;;;;12.10;5.87;;;20.40;87.00;;;;;;4995442;28;20505;-79
2021/07/26 06:37:10;;;;;;;9.57;6.17;;;20.40;86.80;;;;;;4995010;28;20532;-75
2021/07/26 06:39:36;;;;;;;8.23;5.50;;;20.50;86.30;;;;;;4996526;28;20184;-75
2021/07/26 06:42:02;;;;;;;12.13;4.73;;;20.60;85.30;;;;;;4985341;28;20191;-75
2021/07/26 06:44:27;;;;;;;10.23;5.70;;;20.70;85.30;;;;;;4994191;28;20224;-76
2021/07/26 06:46:53;;;;;;;8.57;5.40;;;20.70;85.30;;;;;;4999624;28;20452;-78
2021/07/26 06:49:19;;;;;;;9.63;5.10;;;20.70;85.00;;;;;;5001992;28;20446;-80
2021/07/26 06:51:44;;;;;;;7.90;4.77;;;20.70;84.70;;;;;;5004764;28;20242;-78
2021/07/26 06:54:10;;;;;;;8.50;5.20;;;20.80;84.30;;;;;;5004258;28;20191;-78
2021/07/26 06:56:36;;;;;;;10.60;5.40;;;20.80;83.80;;;;;;4999452;28;20695;-78
2021/07/26 06:59:01;;;;;;;8.37;4.87;;;20.80;83.70;;;;;;4997873;28;20246;-78
2021/07/26 07:01:27;;;;;;;6.80;4.63;;;20.80;83.80;;;;;;5002378;28;20187;-79
2021/07/26 07:03:55;;;;;;;10.00;4.83;;;20.80;84.00;;;;;;4996393;28;20188;-78
2021/07/26 07:06:23;;;;;;;7.10;4.37;;;20.90;84.00;;;;;;4987912;28;21064;-76
2021/07/26 07:08:49;;;;;;;13.30;5.53;;;20.90;83.40;;;;;;4988970;28;20427;-77
2021/07/26 07:11:17;;;;;;;11.63;4.20;;;21.10;83.30;;;;;;4987031;28;20463;-76
2021/07/26 07:13:48;;;;;;;7.50;4.40;;;21.20;82.40;;;;;;4995260;28;20503;-77
2021/07/26 07:16:19;;;;;;;7.70;4.70;;;21.20;81.90;;;;;;4990500;28;20957;-77
2021/07/26 07:18:46;;;;;;;9.73;4.47;;;21.30;81.40;;;;;;4984662;28;20466;-76
2021/07/26 07:21:19;;;;;;;6.70;5.07;;;21.40;81.20;;;;;;4993168;28;20427;-76
2021/07/26 07:23:46;;;;;;;6.67;4.30;;;21.50;81.10;;;;;;4991175;28;20435;-76
2021/07/26 07:26:13;;;;;;;9.30;4.30;;;21.60;79.30;;;;;;4991349;28;20447;-76
2021/07/26 07:28:39;;;;;;;8.00;4.93;;;21.60;78.70;;;;;;4992610;28;20785;-76
2021/07/26 07:31:05;;;;;;;7.90;4.70;;;21.70;79.00;;;;;;4991433;28;21013;-76
2021/07/26 07:33:30;;;;;;;7.77;4.00;;;21.80;78.00;;;;;;4992200;28;20435;-77
2021/07/26 07:36:00;;;;;;;7.63;4.60;;;21.90;77.40;;;;;;4993141;28;20186;-76
2021/07/26 07:38:27;;;;;;;6.17;3.77;;;22.00;77.60;;;;;;4991734;28;20173;-76
2021/07/26 07:40:53;;;;;;;6.20;3.80;;;22.10;75.20;;;;;;4981818;28;20531;-75
2021/07/26 07:43:19;;;;;;;6.13;3.73;;;22.10;74.00;;;;;;4991219;28;20591;-76
2021/07/26 07:45:45;;;;;;;7.10;4.10;;;22.30;74.60;;;;;;4988763;28;20246;-77
2021/07/26 07:48:11;;;;;;;6.50;3.93;;;22.30;74.90;;;;;;4992216;28;20228;-77
2021/07/26 07:50:37;;;;;;;5.67;4.33;;;22.40;75.40;;;;;;4984412;28;20464;-76
2021/07/26 07:53:03;;;;;;;7.53;4.50;;;22.50;76.10;;;;;;4987869;28;20189;-77
2021/07/26 07:55:29;;;;;;;5.50;3.77;;;22.60;75.90;;;;;;4987504;28;20723;-77
2021/07/26 07:57:55;;;;;;;7.67;4.67;;;22.70;75.50;;;;;;4990411;28;20789;-76
2021/07/26 08:00:22;;;;;;;6.83;4.50;;;22.90;75.80;;;;;;4987449;28;20423;-76
2021/07/26 08:02:48;;;;;;;8.30;4.30;;;23.00;75.10;;;;;;4985246;28;20185;-76
2021/07/26 08:05:16;;;;;;;7.53;5.17;;;23.10;73.50;;;;;;4984055;28;20428;-77
2021/07/26 08:07:42;;;;;;;6.97;3.73;;;23.20;73.70;;;;;;4992129;28;20448;-77
2021/07/26 08:10:08;;;;;;;8.47;4.30;;;23.00;73.50;;;;;;4982679;28;20432;-78
2021/07/26 08:12:34;;;;;;;7.33;5.03;;;23.00;73.60;;;;;;4991530;28;20429;-77
2021/07/26 08:15:00;;;;;;;10.03;4.20;;;23.00;73.90;;;;;;4986783;28;20847;-76
2021/07/26 08:17:25;;;;;;;6.50;4.00;;;22.90;72.90;;;;;;4985937;28;20649;-76
2021/07/26 08:19:51;;;;;;;6.30;4.53;;;23.00;72.90;;;;;;4986445;28;20195;-76
2021/07/26 08:22:17;;;;;;;6.87;5.00;;;23.10;72.30;;;;;;4986072;28;20599;-77
2021/07/26 08:24:43;;;;;;;5.70;4.13;;;23.20;71.60;;;;;;4982400;28;20186;-76
2021/07/26 08:27:08;;;;;;;5.60;4.33;;;23.20;70.40;;;;;;4984891;28;20225;-76
2021/07/26 08:29:34;;;;;;;6.97;4.07;;;23.20;70.40;;;;;;4987959;28;20245;-77
2021/07/26 08:32:00;;;;;;;4.90;3.77;;;23.30;71.40;;;;;;4983335;28;20213;-77
2021/07/26 08:34:26;;;;;;;7.27;4.07;;;23.50;71.60;;;;;;4990363;28;20178;-77
2021/07/26 08:36:51;;;;;;;8.53;4.33;;;23.50;70.80;;;;;;4990177;28;20208;-77
2021/07/26 08:39:17;;;;;;;9.00;5.30;;;23.60;71.10;;;;;;4990200;28;20600;-77
2021/07/26 08:41:43;;;;;;;5.10;3.70;;;23.70;71.00;;;;;;4989701;28;20184;-78
2021/07/26 08:44:08;;;;;;;5.27;3.77;;;23.80;70.80;;;;;;4990458;28;20271;-76
2021/07/26 08:46:36;;;;;;;8.20;4.73;;;23.90;69.90;;;;;;4991619;28;20284;-76
2021/07/26 08:49:02;;;;;;;6.93;4.30;;;23.90;69.40;;;;;;4990699;28;20410;-76
2021/07/26 08:51:29;;;;;;;9.43;4.70;;;23.80;69.40;;;;;;4991066;28;21238;-76
2021/07/26 08:53:59;;;;;;;6.03;3.93;;;23.80;69.40;;;;;;4990897;28;20190;-79
2021/07/26 08:56:25;;;;;;;6.10;3.90;;;23.70;69.10;;;;;;4991396;28;20440;-78
2021/07/26 08:58:51;;;;;;;6.40;4.37;;;23.70;69.90;;;;;;4991519;28;20438;-76
2021/07/26 09:01:17;;;;;;;6.67;4.27;;;23.70;70.40;;;;;;4992035;28;20428;-76
2021/07/26 09:03:44;;;;;;;6.60;4.90;;;23.80;70.70;;;;;;4990971;28;20230;-77
2021/07/26 09:06:10;;;;;;;6.47;4.33;;;23.70;70.50;;;;;;4991773;28;20441;-77
2021/07/26 09:08:37;;;;;;;6.03;4.07;;;23.70;70.10;;;;;;4993813;28;20423;-75
2021/07/26 09:11:04;;;;;;;4.70;3.67;;;23.90;70.40;;;;;;4992806;28;20666;-76
2021/07/26 09:13:39;;;;;;;9.33;6.37;;;23.90;69.20;;;;;;4990872;28;20425;-77
2021/07/26 09:16:22;;;;;;;8.47;4.30;;;23.90;70.10;;;;;;4989350;28;20511;-77
2021/07/26 09:19:05;;;;;;;5.93;4.40;;;24.10;69.40;;;;;;4984381;28;20431;-77
2021/07/26 09:21:57;;;;;;;6.53;4.30;;;24.20;69.10;;;;;;4983860;28;20478;-77
2021/07/26 09:24:24;;;;;;;6.03;3.80;;;24.40;68.50;;;;;;4992025;28;20443;-77
2021/07/26 09:26:50;;;;;;;6.63;3.87;;;24.40;67.00;;;;;;4992177;28;20469;-77
2021/07/26 09:29:29;;;;;;;6.67;4.13;;;24.50;67.20;;;;;;4990457;28;20431;-76
2021/07/26 09:32:03;;;;;;;5.60;3.83;;;24.60;65.30;;;;;;4990430;28;20965;-76
2021/07/26 09:34:30;;;;;;;6.80;3.60;;;24.80;65.60;;;;;;4988884;28;20772;-77
2021/07/26 09:36:56;;;;;;;6.10;3.33;;;25.00;64.70;;;;;;4991337;28;20446;-77
2021/07/26 09:39:30;;;;;;;8.37;3.93;;;25.30;63.50;;;;;;4993699;28;20444;-77
2021/07/26 09:41:59;;;;;;;5.57;3.67;;;25.50;63.10;;;;;;4982196;28;20424;-76
2021/07/26 09:44:29;;;;;;;9.10;4.23;;;25.50;61.50;;;;;;4988521;28;20439;-77
2021/07/26 09:47:18;;;;;;;6.03;3.83;;;25.50;62.60;;;;;;4990872;28;20454;-76
2021/07/26 09:49:44;;;;;;;6.30;3.50;;;25.40;62.20;;;;;;4994200;28;20434;-77
2021/07/26 09:52:10;;;;;;;4.90;3.60;;;25.50;61.60;;;;;;4995328;28;21035;-77
2021/07/26 09:54:44;;;;;;;7.03;3.90;;;25.40;61.90;;;;;;4993751;28;20452;-76
2021/07/26 09:57:23;;;;;;;4.70;3.23;;;25.30;62.80;;;;;;4985601;28;20463;-76
2021/07/26 09:59:50;;;;;;;7.00;4.37;;;25.50;62.60;;;;;;4992217;28;20958;-77
2021/07/26 10:02:18;;;;;;;4.60;3.37;;;25.50;61.00;;;;;;4986643;28;20438;-76
2021/07/26 10:04:46;;;;;;;6.47;3.93;;;25.60;62.50;;;;;;4988124;28;20505;-76
2021/07/26 10:07:13;;;;;;;10.93;3.63;;;25.80;62.30;;;;;;4991395;28;20440;-76
2021/07/26 10:09:46;;;;;;;4.97;3.50;;;26.00;61.90;;;;;;4990722;28;20417;-77
2021/07/26 10:12:20;;;;;;;4.90;3.40;;;26.30;61.00;;;;;;4992625;28;20467;-76
2021/07/26 10:14:48;;;;;;;5.00;3.23;;;26.80;59.30;;;;;;4986352;28;20508;-78
2021/07/26 10:17:14;;;;;;;5.70;3.73;;;27.30;57.60;;;;;;4989675;28;20548;-77
2021/07/26 10:19:40;;;;;;;7.50;4.10;;;27.50;56.20;;;;;;4988789;28;20515;-78
2021/07/26 10:22:09;;;;;;;5.03;3.50;;;27.50;56.10;;;;;;4991319;28;20433;-77
2021/07/26 10:24:50;;;;;;;7.13;4.30;;;27.80;56.00;;;;;;4991802;28;20191;-77
2021/07/26 10:27:23;;;;;;;7.03;3.70;;;28.00;54.60;;;;;;4989036;28;20453;-78
2021/07/26 10:29:54;;;;;;;4.93;3.70;;;28.00;55.80;;;;;;4991077;28;20475;-76
2021/07/26 10:32:29;;;;;;;5.63;3.83;;;28.30;55.30;;;;;;4987326;28;20807;-77
2021/07/26 10:34:55;;;;;;;9.03;3.60;;;28.70;54.50;;;;;;4987819;28;20418;-76
2021/07/26 10:37:39;;;;;;;5.10;3.60;;;28.80;53.60;;;;;;4985886;28;20482;-77
2021/07/26 10:40:21;;;;;;;4.37;3.70;;;29.00;53.30;;;;;;4990785;28;20974;-76
2021/07/26 10:42:48;;;;;;;6.73;4.00;;;29.00;52.10;;;;;;4992268;28;20448;-76
2021/07/26 10:45:49;;;;;;;6.00;3.60;;;28.90;52.80;;;;;;4992766;28;20426;-77
2021/07/26 10:48:21;;;;;;;4.43;3.70;;;29.20;52.10;;;;;;4996476;28;20433;-77
2021/07/26 10:50:48;;;;;;;4.67;3.00;;;29.70;50.30;;;;;;4988503;28;20469;-76
2021/07/26 10:53:32;;;;;;;6.47;3.67;;;29.80;50.50;;;;;;4990219;28;20430;-77
2021/07/26 10:56:08;;;;;;;5.57;3.80;;;29.70;50.50;;;;;;4990713;28;20422;-76
2021/07/26 10:58:43;;;;;;;5.40;3.53;;;29.50;51.40;;;;;;4990893;28;20454;-77
2021/07/26 11:01:21;;;;;;;14.40;3.80;;;29.80;49.80;;;;;;4969169;28;20492;-76
2021/07/26 11:03:54;;;;;;;6.27;3.70;;;29.80;48.90;;;;;;4988188;28;20428;-76
2021/07/26 11:06:35;;;;;;;5.20;3.87;;;29.40;50.30;;;;;;4988216;28;20513;-76
2021/07/26 11:09:19;;;;;;;3.33;2.97;;;28.90;51.30;;;;;;4986918;28;20430;-77
2021/07/26 11:11:49;;;;;;;4.73;3.13;;;29.60;51.30;;;;;;4968129;28;20515;-76
2021/07/26 11:14:15;;;;;;;5.80;3.67;;;29.90;50.50;;;;;;4982490;28;20449;-76
2021/07/26 11:16:53;;;;;;;5.40;4.30;;;30.00;50.10;;;;;;4964960;28;20445;-77
2021/07/26 11:19:54;;;;;;;5.10;3.60;;;30.00;50.30;;;;;;4983123;28;20549;-77
2021/07/26 11:22:26;;;;;;;7.00;4.50;;;30.00;51.30;;;;;;4981971;28;20794;-77
2021/07/26 11:24:56;;;;;;;7.67;4.17;;;30.00;51.70;;;;;;4991740;28;20545;-78
2021/07/26 11:27:21;;;;;;;6.03;4.20;;;30.20;50.60;;;;;;4985914;28;21200;-77
2021/07/26 11:29:54;;;;;;;6.57;4.80;;;30.40;50.10;;;;;;4991508;28;20520;-77
2021/07/26 11:32:20;;;;;;;7.50;4.53;;;30.30;49.50;;;;;;4984587;28;20694;-77
2021/07/26 11:34:51;;;;;;;9.10;4.30;;;29.70;51.60;;;;;;4990835;28;20473;-77
2021/07/26 11:37:17;;;;;;;6.30;4.03;;;29.80;50.30;;;;;;4984151;28;20583;-76
2021/07/26 11:40:00;;;;;;;6.53;4.57;;;29.50;51.30;;;;;;4992379;28;21110;-77
2021/07/26 11:42:33;;;;;;;5.37;4.10;;;29.40;50.90;;;;;;4992502;28;20182;-76
2021/07/26 11:45:03;;;;;;;5.63;3.80;;;29.50;52.00;;;;;;4991853;28;20466;-76
2021/07/26 11:47:31;;;;;;;5.70;4.20;;;29.60;50.70;;;;;;4991860;28;20989;-76
2021/07/26 11:49:57;;;;;;;4.63;3.20;;;29.50;50.50;;;;;;4994199;28;20422;-77
2021/07/26 11:52:22;;;;;;;5.40;3.87;;;29.30;51.20;;;;;;4981781;28;20478;-77
2021/07/26 11:54:48;;;;;;;5.23;3.90;;;29.00;53.20;;;;;;4985401;28;20187;-75
2021/07/26 11:57:14;;;;;;;6.20;3.80;;;28.70;54.00;;;;;;4987899;28;20272;-76
2021/07/26 11:59:53;;;;;;;6.03;4.23;;;28.40;54.60;;;;;;4990341;28;20213;-77
2021/07/26 12:02:32;;;;;;;7.93;4.03;;;28.10;55.30;;;;;;4989333;28;20221;-76
2021/07/26 12:05:07;;;;;;;7.87;4.67;;;27.50;56.80;;;;;;4990294;28;20985;-77
2021/07/26 12:07:42;;;;;;;8.50;4.90;;;26.90;59.70;;;;;;4990462;28;21241;-75
2021/07/26 12:10:10;;;;;;;7.20;4.17;;;26.20;62.20;;;;;;5002530;28;20440;-78
2021/07/26 12:12:37;;;;;;;6.87;4.10;;;25.80;65.00;;;;;;4986595;28;20506;-76
2021/07/26 12:15:23;;;;;;;6.90;4.87;;;25.20;67.20;;;;;;4977917;28;20433;-76
2021/07/26 12:18:05;;;;;;;8.13;4.13;;;24.70;68.30;;;;;;4983898;28;20451;-75
2021/07/26 12:20:35;;;;;;;7.30;3.57;;;24.50;69.80;;;;;;4982828;28;20415;-76
2021/07/26 12:23:14;;;;;;;7.40;4.07;;;24.40;71.30;;;;;;4976952;28;20656;-76
2021/07/26 12:25:54;;;;;;;6.90;4.37;;;24.40;70.80;;;;;;4983264;28;20420;-76
2021/07/26 12:28:21;;;;;;;4.43;3.50;;;24.40;70.40;;;;;;4989151;28;20514;-76
2021/07/26 12:30:51;;;;;;;7.17;4.20;;;24.30;71.00;;;;;;4986164;28;20460;-76
2021/07/26 12:33:30;;;;;;;6.80;4.83;;;24.20;71.40;;;;;;4987852;28;20792;-76
2021/07/26 12:36:12;;;;;;;6.97;4.50;;;24.40;71.00;;;;;;4978353;28;20475;-76
2021/07/26 12:38:39;;;;;;;9.73;4.40;;;24.50;70.70;;;;;;4982678;28;20428;-77
2021/07/26 12:41:09;;;;;;;6.23;4.17;;;24.50;71.30;;;;;;4986678;28;20433;-76
2021/07/26 12:43:37;;;;;;;8.30;4.57;;;24.40;71.00;;;;;;4983738;28;20427;-76
2021/07/26 12:46:07;;;;;;;7.73;4.60;;;24.50;70.50;;;;;;4985874;28;20428;-75
2021/07/26 12:48:35;;;;;;;5.80;4.10;;;24.50;70.50;;;;;;4984370;28;20472;-76
2021/07/26 12:51:04;;;;;;;8.97;4.90;;;24.60;71.00;;;;;;4987360;28;20502;-77
2021/07/26 12:53:30;;;;;;;11.40;5.03;;;24.80;70.50;;;;;;4988123;28;20435;-75